Time;durP1;ratioP1;P1;durP2;ratioP2;P2;SDS_P1;SDS_P2;PMS_P1;PMS_P2;Temp;Humidity;BMP_temperature;BMP_pressure;BME280_temperature;BME280_humidity;BME280_pressure;Samples;Min_cycle;Max_cycle;Signal;HPM_P1;HPM_P2
2023/05/09 00:01:58;;;;;;;6.45;4.03;;;15.80;99.90;;;;;;4987699;28;20105;-75
2023/05/09 00:04:25;;;;;;;7.38;4.45;;;15.70;99.90;;;;;;4990330;28;20041;-75
2023/05/09 00:06:50;;;;;;;8.00;3.78;;;15.70;99.90;;;;;;4987062;28;20034;-75
2023/05/09 00:09:16;;;;;;;11.10;4.32;;;15.60;99.90;;;;;;4989892;28;20033;-75
2023/05/09 00:11:42;;;;;;;7.43;4.53;;;15.60;99.90;;;;;;4986043;28;20043;-75
2023/05/09 00:14:11;;;;;;;9.10;4.20;;;15.70;99.90;;;;;;4989518;28;20368;-75
2023/05/09 00:16:37;;;;;;;10.43;5.25;;;15.70;99.90;;;;;;4985045;28;20038;-75
2023/05/09 00:19:03;;;;;;;8.07;4.20;;;15.70;99.90;;;;;;4989681;28;20093;-75
2023/05/09 00:21:29;;;;;;;15.75;5.55;;;15.70;99.90;;;;;;4985992;28;20463;-75
2023/05/09 00:23:56;;;;;;;13.05;4.75;;;15.70;99.90;;;;;;4989607;28;20045;-75
2023/05/09 00:26:22;;;;;;;8.13;4.03;;;15.70;99.90;;;;;;4984979;28;20030;-75
2023/05/09 00:28:48;;;;;;;7.57;3.90;;;15.80;99.90;;;;;;4990996;28;20022;-75
2023/05/09 00:31:14;;;;;;;10.77;4.30;;;15.80;99.90;;;;;;4984644;28;20030;-75
2023/05/09 00:33:40;;;;;;;8.13;4.35;;;15.70;99.90;;;;;;4989469;28;20785;-75
2023/05/09 00:36:06;;;;;;;9.57;4.90;;;15.60;99.90;;;;;;4984633;28;20038;-75
2023/05/09 00:38:32;;;;;;;9.50;4.57;;;15.60;99.90;;;;;;4989690;28;20030;-75
2023/05/09 00:40:58;;;;;;;9.00;5.35;;;15.60;99.90;;;;;;4985445;28;20043;-75
2023/05/09 00:43:23;;;;;;;8.90;4.38;;;15.60;99.90;;;;;;4990811;28;20053;-75
2023/05/09 00:45:49;;;;;;;8.25;4.65;;;15.60;99.90;;;;;;4985895;28;20069;-75
2023/05/09 00:48:15;;;;;;;10.25;5.18;;;15.40;99.90;;;;;;4991118;28;20405;-75
2023/05/09 00:50:42;;;;;;;6.70;3.95;;;15.50;99.90;;;;;;4985628;28;20613;-76
2023/05/09 00:53:09;;;;;;;8.02;3.80;;;15.40;99.90;;;;;;4974742;28;20050;-75
2023/05/09 00:55:35;;;;;;;7.63;3.95;;;15.40;99.90;;;;;;4984526;28;20088;-75
2023/05/09 00:58:02;;;;;;;7.88;4.05;;;15.40;99.90;;;;;;4973329;28;20077;-75
2023/05/09 01:00:28;;;;;;;6.63;3.72;;;15.40;99.90;;;;;;4984080;28;20490;-75
2023/05/09 01:02:55;;;;;;;7.35;3.85;;;15.40;99.90;;;;;;4989174;28;20030;-75
2023/05/09 01:05:27;;;;;;;8.90;3.97;;;15.40;99.90;;;;;;4967752;28;20483;-75
2023/05/09 01:08:12;;;;;;;6.53;3.75;;;15.40;99.90;;;;;;4962466;28;20476;-75
2023/05/09 01:10:58;;;;;;;9.00;4.82;;;15.40;99.90;;;;;;4969904;28;20781;-75
2023/05/09 01:13:40;;;;;;;7.47;4.45;;;15.30;99.90;;;;;;4981135;28;20030;-75
2023/05/09 01:16:18;;;;;;;7.07;4.07;;;15.30;99.90;;;;;;4987415;28;20039;-75
2023/05/09 01:19:21;;;;;;;8.27;4.30;;;15.30;99.90;;;;;;4992779;28;20478;-75
2023/05/09 01:21:48;;;;;;;13.73;3.97;;;15.20;99.90;;;;;;4988310;28;20042;-75
2023/05/09 01:24:43;;;;;;;7.43;3.83;;;15.20;99.90;;;;;;4981563;28;20089;-75
2023/05/09 01:27:21;;;;;;;6.35;4.22;;;15.10;99.90;;;;;;4970911;28;20035;-75
2023/05/09 01:29:54;;;;;;;6.60;3.65;;;15.10;99.90;;;;;;4987169;28;20045;-75
2023/05/09 01:32:26;;;;;;;8.20;5.03;;;15.00;99.90;;;;;;4992454;28;20037;-75
2023/05/09 01:34:58;;;;;;;8.95;5.15;;;15.00;99.90;;;;;;4987109;28;20027;-75
2023/05/09 01:37:30;;;;;;;9.95;5.00;;;14.90;99.90;;;;;;4993557;28;20844;-75
2023/05/09 01:40:03;;;;;;;11.18;4.82;;;14.90;99.90;;;;;;4987516;28;20130;-75
2023/05/09 01:42:46;;;;;;;8.13;4.07;;;14.90;99.90;;;;;;4987163;28;20493;-75
2023/05/09 01:45:14;;;;;;;9.82;4.80;;;14.80;99.90;;;;;;4987270;28;20510;-75
2023/05/09 01:47:40;;;;;;;7.95;4.72;;;14.70;99.90;;;;;;4992348;28;20109;-75
2023/05/09 01:50:09;;;;;;;8.95;3.53;;;14.70;99.90;;;;;;4987021;28;20034;-75
2023/05/09 01:52:38;;;;;;;8.13;4.22;;;14.70;99.90;;;;;;4992007;28;20307;-75
2023/05/09 01:55:06;;;;;;;8.30;4.15;;;14.70;99.90;;;;;;4986697;28;20084;-75
2023/05/09 01:57:35;;;;;;;6.95;3.83;;;14.60;99.90;;;;;;4992327;28;20088;-75
2023/05/09 02:00:02;;;;;;;7.43;4.47;;;14.40;99.90;;;;;;4987213;28;20031;-74
2023/05/09 02:02:28;;;;;;;6.88;4.40;;;14.40;99.90;;;;;;4991854;28;20033;-74
2023/05/09 02:04:56;;;;;;;7.25;3.92;;;14.40;99.90;;;;;;4986563;28;20543;-74
2023/05/09 02:07:27;;;;;;;9.70;4.45;;;14.30;99.90;;;;;;4991838;28;20109;-74
2023/05/09 02:09:55;;;;;;;;;;;14.30;99.90;;;;;;4987073;28;20035;-74
2023/05/09 02:12:24;;;;;;;6.65;3.90;;;14.20;99.90;;;;;;4991806;28;19910;-74
2023/05/09 02:14:50;;;;;;;6.93;4.43;;;14.20;99.90;;;;;;4985127;28;20111;-74
2023/05/09 02:17:16;;;;;;;8.50;4.70;;;14.20;99.90;;;;;;4991097;28;20109;-74
2023/05/09 02:19:44;;;;;;;7.32;4.20;;;14.10;99.90;;;;;;4987563;28;20551;-75
2023/05/09 02:22:12;;;;;;;10.77;3.88;;;14.00;99.90;;;;;;4977512;28;20053;-74
2023/05/09 02:24:39;;;;;;;7.05;3.50;;;13.90;99.90;;;;;;4971087;28;20744;-74
2023/05/09 02:27:06;;;;;;;6.15;4.15;;;13.90;99.90;;;;;;4991758;28;20054;-75
2023/05/09 02:29:39;;;;;;;6.80;3.90;;;13.90;99.90;;;;;;4990197;28;20030;-75
2023/05/09 02:32:25;;;;;;;9.85;4.55;;;13.80;99.90;;;;;;4990739;28;20030;-74
2023/05/09 02:34:53;;;;;;;8.70;5.10;;;13.80;99.90;;;;;;4987409;28;20027;-75
2023/05/09 02:37:19;;;;;;;9.50;4.68;;;13.80;99.90;;;;;;4985954;28;20029;-74
2023/05/09 02:39:45;;;;;;;9.07;4.65;;;13.80;99.90;;;;;;4980805;28;20046;-75
2023/05/09 02:42:17;;;;;;;8.90;4.95;;;13.80;99.90;;;;;;4991023;28;20726;-75
2023/05/09 02:44:42;;;;;;;9.25;5.82;;;13.80;99.90;;;;;;4985770;28;20042;-74
2023/05/09 02:47:08;;;;;;;11.70;5.53;;;13.80;99.90;;;;;;4992417;28;20026;-74
2023/05/09 02:49:34;;;;;;;13.18;5.95;;;13.80;99.90;;;;;;4989312;28;20126;-74
2023/05/09 02:52:00;;;;;;;10.65;5.65;;;13.90;99.90;;;;;;4974726;28;20026;-74
2023/05/09 02:54:26;;;;;;;11.00;5.72;;;13.90;99.90;;;;;;4990699;28;20490;-74
2023/05/09 02:56:52;;;;;;;14.32;6.15;;;13.90;99.90;;;;;;4988623;28;20030;-74
2023/05/09 02:59:19;;;;;;;11.27;5.57;;;13.90;99.90;;;;;;4991943;28;20034;-74
2023/05/09 03:01:45;;;;;;;10.30;5.03;;;13.90;99.90;;;;;;4985469;28;20054;-74
2023/05/09 03:04:11;;;;;;;13.20;6.35;;;14.00;99.90;;;;;;4959511;28;20019;-74
2023/05/09 03:06:37;;;;;;;12.50;6.30;;;14.00;99.90;;;;;;4972516;28;20062;-75
2023/05/09 03:09:03;;;;;;;9.60;4.93;;;14.00;99.90;;;;;;4990911;28;20525;-75
2023/05/09 03:11:29;;;;;;;7.00;4.38;;;14.00;99.90;;;;;;4983326;28;20026;-75
2023/05/09 03:13:55;;;;;;;9.02;5.70;;;13.90;99.90;;;;;;4989997;28;20030;-75
2023/05/09 03:16:21;;;;;;;15.15;6.10;;;13.90;99.90;;;;;;4984239;28;20080;-75
2023/05/09 03:18:47;;;;;;;14.40;4.40;;;13.80;99.90;;;;;;4974148;28;20030;-75
2023/05/09 03:21:13;;;;;;;9.77;5.18;;;13.80;99.90;;;;;;4982604;28;20061;-75
2023/05/09 03:23:38;;;;;;;8.95;4.88;;;13.70;99.90;;;;;;4990973;28;20034;-74
2023/05/09 03:26:04;;;;;;;10.82;5.82;;;13.80;99.90;;;;;;4968984;28;20026;-74
2023/05/09 03:28:30;;;;;;;10.25;5.50;;;13.80;99.90;;;;;;4990702;28;20505;-75
2023/05/09 03:30:56;;;;;;;9.23;4.93;;;13.80;99.90;;;;;;4986208;28;20046;-75
2023/05/09 03:33:22;;;;;;;11.23;5.05;;;13.80;99.90;;;;;;4991101;28;20486;-75
2023/05/09 03:35:47;;;;;;;12.30;5.82;;;13.90;99.90;;;;;;4986253;28;20034;-75
2023/05/09 03:38:13;;;;;;;7.50;4.57;;;14.00;99.90;;;;;;4985127;28;20041;-75
2023/05/09 03:40:39;;;;;;;8.75;6.25;;;14.00;99.90;;;;;;4986087;28;20096;-75
2023/05/09 03:43:04;;;;;;;11.20;6.10;;;14.00;99.90;;;;;;4991105;28;20102;-74
2023/05/09 03:45:30;;;;;;;9.80;5.13;;;14.00;99.90;;;;;;4985980;28;20043;-75
2023/05/09 03:47:56;;;;;;;12.90;5.57;;;14.00;99.90;;;;;;4989819;28;20494;-74
2023/05/09 03:50:22;;;;;;;9.63;5.13;;;14.10;99.90;;;;;;4985509;28;20113;-75
2023/05/09 03:52:49;;;;;;;12.30;5.70;;;14.10;99.90;;;;;;4991365;28;20470;-74
2023/05/09 03:55:15;;;;;;;11.55;5.65;;;14.10;99.90;;;;;;4985506;28;20030;-75
2023/05/09 03:57:41;;;;;;;11.70;6.25;;;14.20;99.90;;;;;;4991234;28;20084;-74
2023/05/09 04:00:09;;;;;;;9.82;5.53;;;14.30;99.90;;;;;;4985887;28;20022;-74
2023/05/09 04:02:35;;;;;;;10.27;5.45;;;14.30;99.90;;;;;;4990946;28;20433;-75
2023/05/09 04:05:01;;;;;;;10.85;5.80;;;14.40;99.90;;;;;;4985546;28;20110;-74
2023/05/09 04:07:27;;;;;;;12.25;6.13;;;14.50;99.90;;;;;;4989826;28;20483;-74
2023/05/09 04:09:54;;;;;;;12.02;5.85;;;14.50;99.90;;;;;;4984249;28;20511;-74
2023/05/09 04:12:21;;;;;;;11.23;6.05;;;14.60;99.90;;;;;;4986093;28;20386;-74
2023/05/09 04:14:46;;;;;;;13.93;5.95;;;14.60;99.90;;;;;;4973948;28;20035;-74
2023/05/09 04:17:12;;;;;;;13.85;6.93;;;14.60;99.90;;;;;;4989294;28;20033;-74
2023/05/09 04:19:38;;;;;;;12.48;6.03;;;14.70;99.90;;;;;;4986653;28;20026;-74
2023/05/09 04:22:03;;;;;;;15.15;7.40;;;14.70;99.90;;;;;;4989810;28;20026;-74
2023/05/09 04:24:29;;;;;;;15.95;7.47;;;14.70;99.90;;;;;;4988991;28;20397;-74
2023/05/09 04:26:55;;;;;;;15.43;7.40;;;14.70;99.90;;;;;;4987439;28;20030;-75
2023/05/09 04:29:21;;;;;;;12.27;6.18;;;14.60;99.90;;;;;;4963719;28;20034;-74
2023/05/09 04:31:47;;;;;;;16.02;7.78;;;14.70;99.90;;;;;;4969914;28;20046;-74
2023/05/09 04:34:12;;;;;;;14.68;6.90;;;14.70;99.90;;;;;;4962968;28;20041;-75
2023/05/09 04:36:38;;;;;;;13.52;7.28;;;14.70;99.90;;;;;;4965968;28;20093;-75
2023/05/09 04:39:04;;;;;;;17.92;8.68;;;14.70;99.90;;;;;;4962442;28;20027;-75
2023/05/09 04:41:30;;;;;;;15.63;6.65;;;14.80;99.90;;;;;;4978450;28;20737;-86
2023/05/09 04:43:55;;;;;;;15.52;8.40;;;14.80;99.90;;;;;;4987350;28;20041;-81
2023/05/09 04:46:21;;;;;;;13.38;6.57;;;14.90;99.90;;;;;;4990131;28;20050;-81
2023/05/09 04:48:47;;;;;;;18.27;9.35;;;14.90;99.90;;;;;;4976282;28;20022;-84
2023/05/09 04:51:13;;;;;;;18.08;8.60;;;15.00;99.90;;;;;;4981370;28;20093;-80
2023/05/09 04:53:38;;;;;;;16.20;7.82;;;14.90;99.90;;;;;;4983561;28;20114;-80
2023/05/09 04:56:04;;;;;;;13.27;6.53;;;15.00;99.90;;;;;;4976842;28;20045;-60
2023/05/09 04:58:32;;;;;;;15.80;7.80;;;15.10;99.90;;;;;;4978524;28;20047;-61
2023/05/09 05:00:57;;;;;;;17.88;7.05;;;15.20;99.90;;;;;;4980646;28;20440;-61
2023/05/09 05:03:23;;;;;;;16.83;7.20;;;15.10;99.90;;;;;;4989555;28;20019;-61
2023/05/09 05:05:49;;;;;;;12.55;7.15;;;15.20;99.90;;;;;;4988357;28;20042;-62
2023/05/09 05:08:15;;;;;;;12.52;7.13;;;15.20;99.90;;;;;;4993893;28;20037;-61
2023/05/09 05:10:41;;;;;;;12.57;7.05;;;15.10;99.90;;;;;;4983484;28;20042;-60
2023/05/09 05:13:06;;;;;;;12.13;6.88;;;15.10;99.90;;;;;;4973252;28;20487;-60
2023/05/09 05:15:32;;;;;;;13.45;6.43;;;15.10;99.90;;;;;;4974463;28;20030;-62
2023/05/09 05:17:58;;;;;;;15.23;7.65;;;15.10;99.90;;;;;;4993192;28;20058;-60
2023/05/09 05:20:23;;;;;;;13.05;6.95;;;15.10;99.90;;;;;;4988455;28;20030;-60
2023/05/09 05:22:49;;;;;;;11.05;5.47;;;15.20;99.90;;;;;;4993118;28;20034;-60
2023/05/09 05:25:16;;;;;;;11.60;6.70;;;15.20;99.90;;;;;;4987721;28;20034;-59
2023/05/09 05:27:42;;;;;;;15.10;7.35;;;15.20;99.90;;;;;;4993465;28;20026;-81
2023/05/09 05:30:08;;;;;;;13.50;7.68;;;15.30;99.90;;;;;;4988382;28;20045;-80
2023/05/09 05:32:34;;;;;;;14.65;7.43;;;15.30;99.90;;;;;;4993691;28;20046;-81
2023/05/09 05:35:01;;;;;;;17.98;7.55;;;15.30;99.90;;;;;;4976336;28;20078;-80
2023/05/09 05:37:27;;;;;;;19.23;7.22;;;15.30;99.90;;;;;;4968765;28;20084;-81
2023/05/09 05:39:53;;;;;;;14.75;7.78;;;15.40;99.90;;;;;;4975450;28;20030;-80
2023/05/09 05:42:18;;;;;;;16.35;7.53;;;15.40;99.90;;;;;;4988763;28;20395;-74
2023/05/09 05:44:44;;;;;;;18.48;7.82;;;15.40;99.90;;;;;;4986904;28;20045;-73
2023/05/09 05:47:10;;;;;;;13.75;7.88;;;15.50;99.90;;;;;;4993759;28;20121;-71
2023/05/09 05:49:36;;;;;;;17.20;8.55;;;15.50;99.90;;;;;;4989354;28;20837;-72
2023/05/09 05:52:02;;;;;;;16.73;8.00;;;15.70;99.90;;;;;;4987301;28;20027;-76
2023/05/09 05:54:28;;;;;;;16.17;7.22;;;15.80;99.90;;;;;;4989306;28;20030;-75
2023/05/09 05:56:53;;;;;;;18.05;7.35;;;15.90;99.90;;;;;;4992887;28;20390;-75
2023/05/09 05:59:19;;;;;;;16.45;8.20;;;15.90;99.90;;;;;;4988006;28;20057;-73
2023/05/09 06:01:45;;;;;;;16.95;8.50;;;16.00;99.90;;;;;;4979823;28;20027;-76
2023/05/09 06:04:11;;;;;;;12.60;6.75;;;16.10;99.90;;;;;;4983157;28;20513;-75
2023/05/09 06:06:36;;;;;;;15.43;8.10;;;16.10;99.90;;;;;;4991258;28;20027;-76
2023/05/09 06:09:02;;;;;;;13.40;6.78;;;16.10;99.90;;;;;;4988470;28;20390;-77
2023/05/09 06:11:28;;;;;;;15.00;7.20;;;16.10;99.90;;;;;;4981037;28;20049;-76
2023/05/09 06:13:54;;;;;;;14.32;6.57;;;16.00;99.90;;;;;;4981068;28;20038;-76
2023/05/09 06:16:20;;;;;;;20.58;7.65;;;16.20;99.90;;;;;;4991008;28;20031;-77
2023/05/09 06:18:46;;;;;;;16.65;7.05;;;16.20;99.90;;;;;;4987891;28;20041;-76
2023/05/09 06:21:12;;;;;;;16.88;7.95;;;16.30;99.90;;;;;;4991015;28;20025;-76
2023/05/09 06:23:37;;;;;;;16.85;7.63;;;16.30;99.90;;;;;;4987610;28;20034;-70
2023/05/09 06:26:03;;;;;;;18.25;7.53;;;16.50;99.90;;;;;;4992266;28;20038;-78
2023/05/09 06:28:29;;;;;;;16.38;8.00;;;16.50;99.90;;;;;;4989114;28;20037;-75
2023/05/09 06:30:55;;;;;;;18.58;7.38;;;16.60;99.90;;;;;;4974065;28;20080;-75
2023/05/09 06:33:21;;;;;;;21.10;8.95;;;16.60;99.90;;;;;;4964208;28;20031;-75
2023/05/09 06:35:47;;;;;;;18.40;7.18;;;16.70;99.90;;;;;;4991209;28;20069;-75
2023/05/09 06:38:12;;;;;;;16.05;7.95;;;16.60;99.90;;;;;;4989217;28;20458;-76
2023/05/09 06:40:38;;;;;;;19.88;7.30;;;16.70;99.90;;;;;;4976214;28;20057;-76
2023/05/09 06:43:04;;;;;;;18.10;8.48;;;16.70;99.90;;;;;;4984565;28;20049;-75
2023/05/09 06:45:30;;;;;;;28.75;9.57;;;16.80;99.90;;;;;;4991568;28;20482;-76
2023/05/09 06:47:56;;;;;;;20.52;9.10;;;16.90;99.90;;;;;;4970566;28;20035;-76
2023/05/09 06:50:21;;;;;;;19.67;8.63;;;16.70;99.90;;;;;;4991594;28;20509;-75
2023/05/09 06:52:47;;;;;;;25.20;8.93;;;16.70;99.90;;;;;;4988791;28;20034;-76
2023/05/09 06:55:13;;;;;;;21.98;9.32;;;16.70;99.90;;;;;;4991459;28;20057;-76
2023/05/09 06:57:42;;;;;;;16.63;7.97;;;16.60;99.90;;;;;;4988124;28;20030;-76
2023/05/09 07:00:08;;;;;;;26.60;9.38;;;16.40;99.90;;;;;;4982319;28;20022;-74
2023/05/09 07:02:34;;;;;;;21.02;8.52;;;16.50;99.90;;;;;;4989637;28;20034;-76
2023/05/09 07:05:00;;;;;;;28.95;8.93;;;16.50;99.90;;;;;;4987295;28;20045;-76
2023/05/09 07:07:26;;;;;;;21.23;9.82;;;16.60;99.90;;;;;;4989792;28;20490;-76
2023/05/09 07:09:52;;;;;;;22.83;8.48;;;16.60;99.90;;;;;;4988148;28;20030;-76
2023/05/09 07:12:17;;;;;;;21.17;8.50;;;16.70;99.90;;;;;;4973905;28;20410;-75
2023/05/09 07:14:43;;;;;;;25.23;7.93;;;16.70;99.90;;;;;;4985240;28;20042;-76
2023/05/09 07:17:09;;;;;;;22.02;8.27;;;16.70;99.90;;;;;;4991571;28;20426;-75
2023/05/09 07:19:34;;;;;;;18.40;7.78;;;16.50;99.90;;;;;;4986385;28;20117;-76
2023/05/09 07:22:00;;;;;;;17.13;7.35;;;16.40;99.90;;;;;;4991067;28;20026;-76
2023/05/09 07:24:26;;;;;;;19.00;8.15;;;16.50;99.90;;;;;;4987802;28;20026;-76
2023/05/09 07:26:52;;;;;;;21.17;8.38;;;16.60;99.90;;;;;;4991162;28;20034;-75
2023/05/09 07:29:19;;;;;;;22.30;7.75;;;16.70;99.90;;;;;;4988168;28;20034;-75
2023/05/09 07:31:45;;;;;;;21.58;8.82;;;16.90;99.90;;;;;;4991019;28;20079;-75
2023/05/09 07:34:10;;;;;;;20.10;7.10;;;17.10;99.90;;;;;;4987388;28;20403;-76
2023/05/09 07:36:37;;;;;;;13.65;6.82;;;17.30;99.90;;;;;;4991265;28;20037;-76
2023/05/09 07:39:03;;;;;;;20.92;8.32;;;17.30;99.90;;;;;;4987936;28;20030;-76
2023/05/09 07:41:30;;;;;;;13.80;7.07;;;17.50;99.90;;;;;;4978591;28;20019;-75
2023/05/09 07:43:56;;;;;;;22.30;8.00;;;17.50;99.90;;;;;;4978366;28;20030;-76
2023/05/09 07:46:22;;;;;;;23.92;8.45;;;17.50;99.90;;;;;;4991223;28;20437;-76
2023/05/09 07:48:47;;;;;;;19.25;7.68;;;17.50;99.90;;;;;;4987315;28;20042;-76
2023/05/09 07:51:13;;;;;;;23.25;8.63;;;17.50;99.90;;;;;;4989624;28;20038;-76
2023/05/09 07:53:39;;;;;;;20.40;7.28;;;17.50;99.90;;;;;;4987649;28;20070;-76
2023/05/09 07:56:08;;;;;;;19.83;8.93;;;17.40;99.90;;;;;;4989327;28;20029;-76
2023/05/09 07:58:34;;;;;;;21.27;7.90;;;17.40;99.90;;;;;;4987504;28;20129;-76
2023/05/09 08:00:59;;;;;;;21.92;8.25;;;17.40;99.90;;;;;;4990831;28;20518;-76
2023/05/09 08:03:25;;;;;;;19.75;7.13;;;17.40;99.90;;;;;;4987456;28;20482;-76
2023/05/09 08:05:57;;;;;;;18.90;8.35;;;17.50;99.90;;;;;;4990762;28;20552;-76
2023/05/09 08:08:23;;;;;;;21.25;8.00;;;17.70;99.90;;;;;;4986733;28;20085;-76
2023/05/09 08:10:49;;;;;;;20.52;8.40;;;17.80;99.90;;;;;;4984581;28;20042;-76
2023/05/09 08:13:14;;;;;;;28.98;10.77;;;17.60;99.90;;;;;;4973968;28;20034;-76
2023/05/09 08:15:40;;;;;;;26.77;9.40;;;17.70;99.90;;;;;;4993034;28;20145;-76
2023/05/09 08:18:06;;;;;;;23.92;8.43;;;17.70;99.90;;;;;;4991459;28;20509;-75
2023/05/09 08:20:33;;;;;;;19.00;8.48;;;17.60;99.90;;;;;;4994363;28;20030;-76
2023/05/09 08:22:59;;;;;;;23.83;9.52;;;17.70;99.90;;;;;;4991785;28;20098;-76
2023/05/09 08:25:24;;;;;;;22.42;8.73;;;17.90;99.90;;;;;;4994405;28;20498;-75
2023/05/09 08:27:50;;;;;;;23.27;9.32;;;18.00;99.90;;;;;;4991528;28;20466;-76
2023/05/09 08:30:16;;;;;;;20.02;9.25;;;17.80;99.90;;;;;;4987242;28;20034;-77
2023/05/09 08:32:42;;;;;;;19.13;9.27;;;17.90;99.90;;;;;;4990067;28;20549;-75
2023/05/09 08:35:08;;;;;;;16.55;8.13;;;18.00;99.90;;;;;;4993892;28;20034;-77
2023/05/09 08:37:36;;;;;;;22.83;9.25;;;18.40;99.90;;;;;;4992073;28;20512;-77
2023/05/09 08:40:06;;;;;;;20.88;8.75;;;18.40;99.90;;;;;;4992900;28;20390;-78
2023/05/09 08:42:35;;;;;;;24.50;10.70;;;18.10;99.90;;;;;;4973713;28;20052;-78
2023/05/09 08:45:05;;;;;;;20.98;8.77;;;18.20;99.90;;;;;;4979724;28;20041;-77
2023/05/09 08:47:37;;;;;;;25.40;9.15;;;17.90;99.90;;;;;;4992236;28;20506;-78
2023/05/09 08:50:04;;;;;;;26.45;9.80;;;17.90;99.90;;;;;;5027530;23;20050;-78
2023/05/09 08:52:34;;;;;;;23.40;9.40;;;18.00;99.90;;;;;;4959095;28;20035;-78
2023/05/09 08:55:03;;;;;;;20.48;9.00;;;18.10;99.90;;;;;;4973492;28;20036;-79
2023/05/09 08:57:34;;;;;;;18.48;8.63;;;18.10;99.90;;;;;;4968400;28;20089;-79
2023/05/09 09:00:00;;;;;;;24.85;8.25;;;18.10;99.90;;;;;;4986816;28;20030;-79
2023/05/09 09:02:26;;;;;;;18.77;9.07;;;18.00;99.90;;;;;;4967585;28;20037;-78
2023/05/09 09:04:53;;;;;;;22.00;9.20;;;18.10;99.90;;;;;;4971410;28;20035;-77
2023/05/09 09:07:20;;;;;;;22.80;8.82;;;18.20;99.90;;;;;;4960467;28;20127;-78
2023/05/09 09:09:49;;;;;;;19.60;8.35;;;18.30;99.90;;;;;;4972978;28;20463;-79
2023/05/09 09:12:16;;;;;;;31.27;9.52;;;18.30;99.90;;;;;;4962108;28;20061;-79
2023/05/09 09:14:52;;;;;;;25.02;8.88;;;18.30;99.90;;;;;;4969328;28;20031;-78
2023/05/09 09:17:23;;;;;;;19.95;9.27;;;18.20;99.90;;;;;;4965893;28;20034;-78
2023/05/09 09:19:53;;;;;;;22.92;8.95;;;18.30;99.90;;;;;;4972272;28;20035;-78
2023/05/09 09:22:19;;;;;;;25.03;8.50;;;18.20;99.90;;;;;;4961392;28;20031;-78
2023/05/09 09:24:45;;;;;;;23.63;9.10;;;18.30;99.90;;;;;;4973827;28;20121;-79
2023/05/09 09:27:11;;;;;;;21.08;9.25;;;18.30;99.90;;;;;;4963760;28;20595;-78
2023/05/09 09:29:39;;;;;;;18.63;7.85;;;18.50;99.90;;;;;;4972712;28;20266;-78
2023/05/09 09:32:06;;;;;;;17.98;8.18;;;18.80;99.90;;;;;;4966446;28;20497;-79
2023/05/09 09:34:32;;;;;;;18.67;9.10;;;18.90;99.90;;;;;;4973514;28;20490;-78
2023/05/09 09:36:58;;;;;;;16.77;7.40;;;18.60;99.90;;;;;;4964294;28;20033;-79
2023/05/09 09:39:24;;;;;;;14.23;7.68;;;18.70;99.90;;;;;;4973628;28;20031;-79
2023/05/09 09:41:50;;;;;;;15.25;8.00;;;18.90;99.90;;;;;;4963958;28;20035;-78
2023/05/09 09:44:19;;;;;;;19.55;8.25;;;18.70;99.90;;;;;;4967507;28;20031;-80
2023/05/09 09:46:51;;;;;;;17.48;7.45;;;18.70;99.90;;;;;;4957212;28;20110;-78
2023/05/09 09:49:24;;;;;;;19.85;9.05;;;18.60;99.90;;;;;;4974390;28;20514;-79
2023/05/09 09:51:55;;;;;;;19.20;7.93;;;18.80;99.90;;;;;;4964196;28;20557;-74
2023/05/09 09:54:22;;;;;;;17.73;7.40;;;18.80;99.90;;;;;;4971940;28;20045;-61
2023/05/09 09:56:53;;;;;;;14.13;6.72;;;18.90;99.90;;;;;;4965052;28;20031;-77
2023/05/09 09:59:23;;;;;;;18.25;7.18;;;19.00;99.90;;;;;;4973791;28;20086;-82
2023/05/09 10:01:57;;;;;;;19.17;8.30;;;19.20;99.90;;;;;;4965364;28;20478;-73
2023/05/09 10:04:25;;;;;;;15.70;7.32;;;19.10;99.90;;;;;;4972935;28;20045;-72
2023/05/09 10:06:56;;;;;;;15.23;7.10;;;18.90;99.90;;;;;;4963651;28;20561;-73
2023/05/09 10:09:25;;;;;;;18.73;8.38;;;18.80;99.90;;;;;;4956411;28;20062;-70
2023/05/09 10:11:52;;;;;;;15.93;7.00;;;19.10;99.90;;;;;;4963263;28;20106;-73
2023/05/09 10:14:24;;;;;;;13.95;6.25;;;19.20;99.90;;;;;;4967033;28;20027;-72
2023/05/09 10:16:56;;;;;;;14.73;6.80;;;19.30;99.90;;;;;;4963832;28;20043;-73
2023/05/09 10:19:25;;;;;;;15.57;7.38;;;19.60;99.90;;;;;;4971856;28;20026;-72
2023/05/09 10:21:53;;;;;;;13.68;6.53;;;19.70;99.90;;;;;;4964441;28;20134;-72
2023/05/09 10:24:54;;;;;;;13.23;6.25;;;19.50;99.90;;;;;;4970228;28;20027;-72
2023/05/09 10:27:25;;;;;;;18.77;8.10;;;19.80;99.90;;;;;;4959321;28;20039;-72
2023/05/09 10:30:05;;;;;;;11.93;5.72;;;20.00;99.90;;;;;;4970435;28;20497;-72
2023/05/09 10:33:01;;;;;;;13.45;6.25;;;19.90;99.90;;;;;;4963531;28;20070;-72
2023/05/09 10:35:32;;;;;;;14.80;6.57;;;20.20;99.90;;;;;;4933460;29;20496;-72
2023/05/09 10:38:00;;;;;;;16.23;7.30;;;20.40;99.90;;;;;;4969630;28;20380;-72
2023/05/09 10:40:28;;;;;;;14.70;7.03;;;20.20;99.90;;;;;;4966505;28;20042;-72
2023/05/09 10:42:53;;;;;;;10.88;6.20;;;20.00;99.90;;;;;;4963704;28;20122;-73
2023/05/09 10:45:21;;;;;;;11.05;5.68;;;20.00;99.90;;;;;;4965487;28;20121;-72
2023/05/09 10:47:51;;;;;;;12.27;5.90;;;20.30;99.90;;;;;;4968829;28;20033;-72
2023/05/09 10:50:18;;;;;;;13.10;6.07;;;20.50;99.90;;;;;;4966190;28;20554;-72
2023/05/09 10:53:13;;;;;;;13.35;5.60;;;20.90;99.90;;;;;;4934298;28;20515;-72
2023/05/09 10:55:59;;;;;;;11.00;5.47;;;20.80;99.90;;;;;;4941427;28;20071;-73
2023/05/09 10:58:36;;;;;;;12.52;6.38;;;21.40;99.90;;;;;;4945664;28;20059;-73
2023/05/09 11:01:03;;;;;;;8.98;5.05;;;21.40;99.90;;;;;;4949281;28;20035;-72
2023/05/09 11:03:52;;;;;;;10.80;5.43;;;21.00;99.90;;;;;;4942881;28;20744;-73
2023/05/09 11:06:51;;;;;;;11.82;4.85;;;20.90;99.90;;;;;;4961739;28;20042;-73
2023/05/09 11:09:33;;;;;;;10.55;5.38;;;21.10;99.90;;;;;;4933639;28;20070;-71
2023/05/09 11:12:13;;;;;;;9.52;4.65;;;20.60;99.90;;;;;;4963610;28;20030;-69
2023/05/09 11:14:54;;;;;;;10.75;5.40;;;20.80;99.90;;;;;;4960450;28;20090;-73
2023/05/09 11:17:23;;;;;;;12.45;5.32;;;21.30;99.90;;;;;;4953239;28;20139;-72
2023/05/09 11:19:49;;;;;;;7.13;4.25;;;20.80;99.90;;;;;;4947710;28;20509;-77
2023/05/09 11:22:38;;;;;;;9.52;4.55;;;20.70;99.90;;;;;;4949154;28;20037;-74
2023/05/09 11:25:09;;;;;;;10.85;5.22;;;20.70;99.90;;;;;;4970729;28;20108;-72
2023/05/09 11:27:47;;;;;;;;;;;20.90;99.90;;;;;;4968848;28;20060;-73
2023/05/09 11:30:18;;;;;;;12.00;4.25;;;21.00;99.90;;;;;;4956123;28;19990;-75
2023/05/09 11:32:53;;;;;;;7.45;4.35;;;20.70;99.90;;;;;;4940277;28;20050;-73
2023/05/09 11:35:22;;;;;;;9.13;4.63;;;20.70;99.90;;;;;;4970069;28;20035;-74
2023/05/09 11:38:05;;;;;;;8.18;5.07;;;20.90;99.90;;;;;;4951058;28;20503;-74
2023/05/09 11:40:33;;;;;;;6.65;3.88;;;21.00;99.90;;;;;;4969982;28;20022;-81
2023/05/09 11:43:00;;;;;;;6.43;3.17;;;21.10;99.90;;;;;;4962576;28;20051;-75
2023/05/09 11:45:31;;;;;;;8.90;3.85;;;21.10;99.90;;;;;;4970203;28;20063;-74
2023/05/09 11:47:59;;;;;;;7.82;2.67;;;21.30;99.90;;;;;;4968658;28;20476;-76
2023/05/09 11:50:25;;;;;;;5.13;2.92;;;21.20;99.90;;;;;;4969368;28;20170;-74
2023/05/09 11:52:52;;;;;;;6.47;3.40;;;21.40;99.90;;;;;;4958731;28;20059;-72
2023/05/09 11:55:21;;;;;;;5.45;3.22;;;21.20;99.90;;;;;;4944091;28;20034;-74
2023/05/09 11:57:53;;;;;;;5.95;2.88;;;20.90;99.90;;;;;;4951452;28;20035;-73
2023/05/09 12:00:25;;;;;;;7.93;3.45;;;20.90;99.90;;;;;;4969607;28;20026;-74
2023/05/09 12:02:52;;;;;;;16.52;4.53;;;21.00;99.90;;;;;;4966991;28;20036;-73
2023/05/09 12:05:20;;;;;;;14.85;3.88;;;21.20;99.90;;;;;;4969799;28;20054;-72
2023/05/09 12:07:46;;;;;;;7.50;3.50;;;21.30;99.90;;;;;;4968290;28;20035;-74
2023/05/09 12:10:19;;;;;;;10.73;4.72;;;21.20;99.90;;;;;;4968598;28;20027;-73
2023/05/09 12:12:49;;;;;;;5.55;3.25;;;21.10;99.90;;;;;;4950123;28;20031;-73
2023/05/09 12:15:16;;;;;;;4.40;2.75;;;21.30;99.90;;;;;;4969782;28;20026;-73
2023/05/09 12:17:44;;;;;;;5.80;3.10;;;21.10;99.90;;;;;;4966981;28;20062;-73
2023/05/09 12:20:10;;;;;;;6.10;3.40;;;21.20;99.90;;;;;;4971204;28;20141;-73
2023/05/09 12:22:36;;;;;;;5.70;3.63;;;21.40;99.90;;;;;;4967613;28;20023;-74
2023/05/09 12:25:09;;;;;;;9.15;3.08;;;21.40;99.90;;;;;;4968677;28;20050;-73
2023/05/09 12:27:37;;;;;;;5.80;3.15;;;21.60;99.90;;;;;;4959927;28;20050;-73
2023/05/09 12:30:09;;;;;;;7.07;3.72;;;21.80;99.90;;;;;;4948472;28;20066;-73
2023/05/09 12:32:38;;;;;;;9.05;4.93;;;21.80;99.90;;;;;;4962456;28;20042;-73
2023/05/09 12:35:05;;;;;;;8.07;2.85;;;22.00;99.90;;;;;;4968591;28;20756;-73
2023/05/09 12:37:31;;;;;;;6.43;2.83;;;21.70;99.90;;;;;;4968636;28;20035;-73
2023/05/09 12:40:11;;;;;;;5.88;3.33;;;21.50;99.90;;;;;;4983862;28;20023;-73
2023/05/09 12:42:37;;;;;;;6.95;3.47;;;21.40;99.90;;;;;;4964559;28;20038;-72
2023/05/09 12:45:07;;;;;;;7.65;3.65;;;21.40;99.90;;;;;;4961430;28;20117;-73
2023/05/09 12:47:34;;;;;;;8.32;4.13;;;21.40;99.90;;;;;;4967557;28;20486;-73